Time;durP1;ratioP1;P1;durP2;ratioP2;P2;SDS_P1;SDS_P2;PMS_P1;PMS_P2;Temp;Humidity;BMP_temperature;BMP_pressure;BME280_temperature;BME280_humidity;BME280_pressure;Samples;Min_cycle;Max_cycle;Signal;HPM_P1;HPM_P2
2022/11/02 00:00:45;;;;;;;11.75;3.03;;;11.60;99.90;;;;;;5010576;28;20041;-86
2022/11/02 00:03:11;;;;;;;12.98;2.55;;;11.70;99.90;;;;;;5031310;28;20040;-86
2022/11/02 00:05:45;;;;;;;19.67;2.58;;;11.80;99.90;;;;;;5028229;28;20136;-86
2022/11/02 00:08:11;;;;;;;18.20;2.47;;;11.90;99.90;;;;;;5023856;28;20041;-87
2022/11/02 00:10:39;;;;;;;11.80;2.17;;;11.90;99.90;;;;;;5029058;28;20034;-85
2022/11/02 00:13:05;;;;;;;15.70;2.33;;;11.90;99.90;;;;;;5025370;28;20538;-86
2022/11/02 00:15:33;;;;;;;17.63;3.05;;;12.00;99.90;;;;;;5029157;28;20125;-87
2022/11/02 00:18:06;;;;;;;12.52;2.78;;;11.90;99.90;;;;;;5029055;28;20034;-85
2022/11/02 00:20:36;;;;;;;15.10;2.53;;;12.00;99.90;;;;;;5028407;28;20037;-83
2022/11/02 00:23:02;;;;;;;13.75;2.25;;;12.00;99.90;;;;;;5029885;28;20364;-86
2022/11/02 00:25:28;;;;;;;12.48;1.85;;;11.90;99.90;;;;;;5027412;28;20116;-82
2022/11/02 00:27:54;;;;;;;22.98;3.20;;;11.90;99.90;;;;;;5031540;28;20136;-84
2022/11/02 00:30:20;;;;;;;11.38;2.97;;;11.90;99.90;;;;;;5026952;28;20117;-89
2022/11/02 00:32:45;;;;;;;20.73;3.05;;;11.90;99.90;;;;;;5026312;28;20068;-85
2022/11/02 00:35:11;;;;;;;26.45;2.95;;;11.90;99.90;;;;;;5021952;28;20502;-86
2022/11/02 00:37:37;;;;;;;20.15;3.53;;;11.90;99.90;;;;;;5024727;28;20037;-83
2022/11/02 00:40:03;;;;;;;16.60;3.17;;;11.80;99.90;;;;;;5029524;28;20690;-82
2022/11/02 00:42:35;;;;;;;25.20;3.10;;;11.90;99.90;;;;;;5027179;28;20475;-85
2022/11/02 00:45:00;;;;;;;15.32;3.60;;;11.80;99.90;;;;;;5029464;28;20029;-85
2022/11/02 00:47:26;;;;;;;20.77;3.30;;;11.80;99.90;;;;;;5027693;28;20036;-86
2022/11/02 00:49:51;;;;;;;20.45;3.05;;;11.90;99.90;;;;;;5027199;28;20037;-86
2022/11/02 00:52:17;;;;;;;15.15;3.13;;;11.80;99.90;;;;;;5029380;28;20033;-85
2022/11/02 00:54:46;;;;;;;12.88;2.72;;;11.80;99.90;;;;;;5030356;28;20033;-83
2022/11/02 00:57:11;;;;;;;15.52;3.10;;;11.80;99.90;;;;;;5032135;28;20482;-85
2022/11/02 00:59:37;;;;;;;15.65;2.45;;;11.70;99.90;;;;;;5025962;28;20025;-85
2022/11/02 01:02:02;;;;;;;9.82;2.55;;;11.60;99.90;;;;;;5028616;28;20025;-88
2022/11/02 01:04:28;;;;;;;24.77;2.72;;;11.70;99.90;;;;;;5023083;28;20037;-85
2022/11/02 01:06:54;;;;;;;20.58;3.35;;;11.60;99.90;;;;;;5028593;28;20137;-86
2022/11/02 01:09:20;;;;;;;11.85;2.80;;;11.60;99.90;;;;;;5027309;28;20434;-84
2022/11/02 01:11:46;;;;;;;20.90;2.63;;;11.60;99.90;;;;;;5029773;28;20034;-87
2022/11/02 01:14:11;;;;;;;12.20;2.60;;;11.60;99.90;;;;;;5025088;28;20072;-85
2022/11/02 01:16:40;;;;;;;18.63;2.95;;;11.70;99.90;;;;;;5032208;28;20381;-84
2022/11/02 01:19:06;;;;;;;16.35;3.05;;;11.60;99.90;;;;;;5026415;28;20083;-83
2022/11/02 01:21:32;;;;;;;18.27;3.05;;;11.60;99.90;;;;;;5023358;28;20033;-84
2022/11/02 01:24:00;;;;;;;12.32;2.63;;;11.60;99.90;;;;;;5024549;28;20031;-82
2022/11/02 01:26:26;;;;;;;16.67;2.95;;;11.60;99.90;;;;;;5020859;28;20525;-85
2022/11/02 01:28:53;;;;;;;26.33;3.53;;;11.50;99.90;;;;;;5026686;28;20057;-86
2022/11/02 01:31:18;;;;;;;16.30;3.08;;;11.50;99.90;;;;;;5026612;28;20025;-84
2022/11/02 01:33:44;;;;;;;23.00;3.25;;;11.50;99.90;;;;;;5017917;28;20049;-87
2022/11/02 01:36:12;;;;;;;19.25;3.58;;;11.60;99.90;;;;;;5013915;28;20403;-84
2022/11/02 01:38:38;;;;;;;15.43;2.88;;;11.60;99.90;;;;;;5006735;28;20080;-87
2022/11/02 01:41:04;;;;;;;22.60;3.17;;;11.60;99.90;;;;;;5012625;28;20033;-85
2022/11/02 01:43:51;;;;;;;11.50;2.67;;;11.50;99.90;;;;;;5009829;28;20040;-85
2022/11/02 01:46:24;;;;;;;13.13;2.58;;;11.60;99.90;;;;;;5008463;28;20046;-85
2022/11/02 01:49:29;;;;;;;19.77;2.85;;;11.60;99.90;;;;;;5006406;28;20030;-85
2022/11/02 01:52:41;;;;;;;15.43;2.60;;;11.50;99.90;;;;;;4995141;28;20274;-85
2022/11/02 01:55:15;;;;;;;17.38;3.17;;;11.50;99.90;;;;;;5013155;28;20041;-85
2022/11/02 01:57:44;;;;;;;15.43;2.65;;;11.40;99.90;;;;;;5007791;28;20029;-84
2022/11/02 02:00:13;;;;;;;24.35;3.83;;;11.40;99.90;;;;;;5009214;28;20079;-85
2022/11/02 02:02:55;;;;;;;21.15;3.40;;;11.40;99.90;;;;;;5015561;28;20441;-85
2022/11/02 02:05:23;;;;;;;18.95;3.10;;;11.30;99.90;;;;;;5021755;28;20021;-84
2022/11/02 02:07:49;;;;;;;26.08;3.47;;;11.20;99.90;;;;;;5015318;28;20046;-84
2022/11/02 02:10:15;;;;;;;20.60;3.65;;;11.20;99.90;;;;;;5018093;28;20026;-83
2022/11/02 02:12:42;;;;;;;9.32;2.70;;;11.10;99.90;;;;;;5012234;28;20025;-82
2022/11/02 02:15:10;;;;;;;22.55;3.00;;;11.10;99.90;;;;;;5005182;28;20072;-88
2022/11/02 02:17:50;;;;;;;17.17;2.65;;;11.20;99.90;;;;;;5012522;28;20034;-83
2022/11/02 02:20:21;;;;;;;21.75;3.13;;;11.10;99.90;;;;;;5002186;28;20030;-84
2022/11/02 02:23:23;;;;;;;17.35;2.85;;;11.10;99.90;;;;;;5012459;28;20026;-83
2022/11/02 02:26:14;;;;;;;29.45;5.30;;;11.10;99.90;;;;;;5009976;28;20026;-84
2022/11/02 02:28:58;;;;;;;21.05;4.22;;;11.10;99.90;;;;;;5016490;28;20330;-85
2022/11/02 02:32:08;;;;;;;21.50;3.50;;;11.00;99.90;;;;;;5011190;28;20034;-84
2022/11/02 02:34:58;;;;;;;24.08;3.75;;;11.00;99.90;;;;;;4962127;28;20070;-83
2022/11/02 02:37:49;;;;;;;19.67;3.53;;;11.00;99.90;;;;;;4967609;28;20039;-84
2022/11/02 02:40:34;;;;;;;20.52;3.28;;;11.00;99.90;;;;;;5012099;28;20037;-83
2022/11/02 02:43:09;;;;;;;23.45;3.17;;;10.90;99.90;;;;;;5003218;28;20410;-84
2022/11/02 02:45:49;;;;;;;14.73;2.95;;;11.00;99.90;;;;;;5029025;28;20037;-86
2022/11/02 02:48:18;;;;;;;18.70;3.67;;;10.90;99.90;;;;;;5028411;28;20586;-87
2022/11/02 02:51:15;;;;;;;16.00;3.75;;;10.90;99.90;;;;;;5028711;28;20026;-85
2022/11/02 02:53:46;;;;;;;22.33;3.00;;;10.80;99.90;;;;;;5028773;28;20415;-83
2022/11/02 02:56:14;;;;;;;17.63;3.20;;;10.80;99.90;;;;;;5029748;28;20088;-90
2022/11/02 02:58:58;;;;;;;19.10;3.10;;;10.80;99.90;;;;;;5027191;28;20034;-84
2022/11/02 03:01:24;;;;;;;12.70;2.72;;;10.80;99.90;;;;;;5029544;28;20293;-84
2022/11/02 03:03:50;;;;;;;26.40;3.50;;;10.70;99.90;;;;;;5029426;28;20033;-84
2022/11/02 03:06:29;;;;;;;28.85;4.65;;;10.80;99.90;;;;;;5028964;28;20034;-85
2022/11/02 03:09:18;;;;;;;19.05;3.42;;;10.70;99.90;;;;;;5026961;28;20033;-84
2022/11/02 03:12:06;;;;;;;17.42;3.53;;;10.70;99.90;;;;;;4994273;28;20044;-84
2022/11/02 03:14:40;;;;;;;21.92;3.45;;;10.70;99.90;;;;;;5023448;28;20385;-84
2022/11/02 03:17:15;;;;;;;19.70;5.22;;;10.70;99.90;;;;;;5026025;28;20091;-85
2022/11/02 03:19:59;;;;;;;16.17;3.50;;;10.60;99.90;;;;;;5029243;28;20029;-84
2022/11/02 03:22:52;;;;;;;20.92;2.50;;;10.70;99.90;;;;;;5026957;28;20051;-84
2022/11/02 03:25:27;;;;;;;19.58;2.88;;;10.70;99.90;;;;;;5029813;28;20107;-84
2022/11/02 03:28:01;;;;;;;19.88;3.92;;;10.70;99.90;;;;;;5027937;28;20075;-84
2022/11/02 03:30:32;;;;;;;25.25;4.05;;;10.70;99.90;;;;;;5025287;28;20029;-83
2022/11/02 03:33:49;;;;;;;18.55;3.17;;;10.70;99.90;;;;;;5029807;28;20053;-81
2022/11/02 03:36:21;;;;;;;17.92;3.08;;;10.70;99.90;;;;;;4955209;28;20687;-84
2022/11/02 03:38:57;;;;;;;14.38;3.00;;;10.70;99.90;;;;;;5028291;28;20043;-83
2022/11/02 03:41:24;;;;;;;25.08;3.15;;;10.70;99.90;;;;;;5016514;28;20025;-84
2022/11/02 03:44:10;;;;;;;22.23;3.50;;;10.70;99.90;;;;;;5022561;28;20110;-82
2022/11/02 03:46:42;;;;;;;20.58;3.25;;;10.80;99.90;;;;;;5017875;28;20099;-85
2022/11/02 03:49:12;;;;;;;18.90;3.50;;;10.70;99.90;;;;;;5026616;28;20038;-83
2022/11/02 03:51:48;;;;;;;23.95;4.10;;;10.70;99.90;;;;;;5027310;28;20043;-84
2022/11/02 03:54:42;;;;;;;19.20;2.65;;;10.70;99.90;;;;;;5029522;28;20036;-81
2022/11/02 03:57:16;;;;;;;15.18;2.53;;;10.80;99.90;;;;;;5025037;28;20184;-88
2022/11/02 03:59:45;;;;;;;16.52;3.38;;;10.80;99.90;;;;;;5029379;28;20036;-85
2022/11/02 04:02:12;;;;;;;21.10;2.95;;;10.80;99.90;;;;;;5023113;28;20073;-84
2022/11/02 04:04:51;;;;;;;22.38;3.05;;;10.70;99.90;;;;;;5010301;28;20431;-84
2022/11/02 04:07:23;;;;;;;21.48;3.35;;;10.70;99.90;;;;;;5028395;28;20034;-85
2022/11/02 04:09:48;;;;;;;20.85;3.33;;;10.70;99.90;;;;;;5026068;28;20037;-84
2022/11/02 04:15:00;;;;;;;23.95;3.67;;;10.70;99.90;;;;;;5021014;28;20870;-88
2022/11/02 04:20:10;;;;;;;18.48;2.67;;;10.70;99.90;;;;;;5026234;28;20115;-84
2022/11/02 04:25:25;;;;;;;16.48;2.42;;;10.70;99.90;;;;;;5018349;28;20032;-84
2022/11/02 04:27:52;;;;;;;18.42;2.72;;;10.70;99.90;;;;;;5025898;28;20406;-84
2022/11/02 04:30:20;;;;;;;26.02;3.80;;;10.70;99.90;;;;;;5025513;28;20021;-85
2022/11/02 04:35:54;;;;;;;26.40;4.90;;;10.70;99.90;;;;;;4967143;28;20534;-85
2022/11/02 04:43:48;;;;;;;24.45;4.13;;;10.70;99.90;;;;;;5020298;28;20101;-82
2022/11/02 04:46:14;;;;;;;16.83;2.60;;;10.80;99.90;;;;;;5025020;28;20029;-89
2022/11/02 04:48:42;;;;;;;22.77;3.50;;;10.80;99.90;;;;;;5022692;28;20033;-85
2022/11/02 04:51:08;;;;;;;18.75;3.03;;;10.80;99.90;;;;;;5020857;28;20026;-82
2022/11/02 04:53:34;;;;;;;20.02;3.53;;;10.80;99.90;;;;;;5024791;28;20541;-84
2022/11/02 04:55:59;;;;;;;13.82;2.38;;;10.80;99.90;;;;;;5024204;28;20105;-84
2022/11/02 04:58:25;;;;;;;20.77;2.92;;;10.80;99.90;;;;;;5023713;28;20035;-85
2022/11/02 05:00:50;;;;;;;22.15;3.72;;;10.80;99.90;;;;;;5025511;28;20510;-84
2022/11/02 05:03:16;;;;;;;21.40;3.42;;;10.90;99.90;;;;;;5026604;28;20471;-84
2022/11/02 05:05:42;;;;;;;29.63;3.30;;;10.90;99.90;;;;;;5027889;28;20029;-83
2022/11/02 05:08:08;;;;;;;31.77;3.45;;;10.90;99.90;;;;;;5026753;28;20053;-84
2022/11/02 05:10:34;;;;;;;16.70;2.70;;;10.90;99.90;;;;;;5016488;28;20038;-83
2022/11/02 05:13:01;;;;;;;19.52;3.28;;;10.90;99.90;;;;;;5020578;28;20032;-85
2022/11/02 05:15:27;;;;;;;22.55;3.30;;;10.90;99.90;;;;;;5015988;28;20033;-84
2022/11/02 05:17:55;;;;;;;19.98;3.47;;;10.90;99.90;;;;;;5021875;28;20025;-84
2022/11/02 05:20:21;;;;;;;15.65;2.35;;;10.90;99.90;;;;;;5023133;28;20022;-85
2022/11/02 05:22:46;;;;;;;23.60;3.35;;;10.90;99.90;;;;;;5019053;28;20024;-82
2022/11/02 05:25:12;;;;;;;22.10;3.08;;;10.90;99.90;;;;;;5021293;28;20032;-83
2022/11/02 05:27:38;;;;;;;18.48;3.85;;;10.90;99.90;;;;;;5024101;28;20380;-84
2022/11/02 05:30:05;;;;;;;18.45;2.90;;;10.90;99.90;;;;;;5021747;28;20052;-84
2022/11/02 05:32:31;;;;;;;19.17;2.88;;;10.80;99.90;;;;;;5018904;28;20511;-86
2022/11/02 05:34:59;;;;;;;20.63;3.22;;;10.90;99.90;;;;;;5022927;28;20025;-84
2022/11/02 05:37:24;;;;;;;15.90;2.70;;;10.90;99.90;;;;;;5022706;28;20021;-84
2022/11/02 05:39:50;;;;;;;23.92;3.75;;;10.90;99.90;;;;;;5019863;28;20082;-83
2022/11/02 05:42:16;;;;;;;18.63;3.63;;;10.90;99.90;;;;;;5020763;28;20030;-84
2022/11/02 05:44:41;;;;;;;16.88;2.53;;;10.90;99.90;;;;;;5019590;28;20433;-83
2022/11/02 05:47:07;;;;;;;24.38;3.28;;;10.90;99.90;;;;;;5018736;28;20169;-86
2022/11/02 05:49:32;;;;;;;21.02;2.95;;;10.90;99.90;;;;;;5013989;28;20032;-87
2022/11/02 05:52:01;;;;;;;17.13;2.70;;;10.90;99.90;;;;;;5018358;28;20159;-82
2022/11/02 05:54:26;;;;;;;19.92;2.60;;;10.90;99.90;;;;;;5018752;28;20037;-84
2022/11/02 05:56:52;;;;;;;16.20;3.10;;;10.90;99.90;;;;;;5026186;28;20031;-85
2022/11/02 05:59:17;;;;;;;22.25;3.65;;;11.00;99.90;;;;;;5015401;28;21148;-84
2022/11/02 06:01:43;;;;;;;18.63;3.13;;;11.00;99.90;;;;;;5019646;28;20024;-84
2022/11/02 06:04:09;;;;;;;17.23;3.05;;;11.00;99.90;;;;;;5006460;28;20077;-86
2022/11/02 06:06:34;;;;;;;23.15;3.47;;;11.00;99.90;;;;;;5010949;28;20042;-84
2022/11/02 06:09:03;;;;;;;11.65;3.42;;;11.00;99.90;;;;;;5024865;28;20530;-87
2022/11/02 06:11:28;;;;;;;18.60;3.33;;;11.00;99.90;;;;;;5013407;28;20033;-84
2022/11/02 06:13:54;;;;;;;22.63;3.55;;;11.00;99.90;;;;;;5023807;28;20025;-84
2022/11/02 06:16:19;;;;;;;18.40;3.20;;;11.00;99.90;;;;;;5016361;28;20057;-84
2022/11/02 06:18:54;;;;;;;20.60;2.70;;;11.00;99.90;;;;;;5026075;28;20029;-84
2022/11/02 06:21:20;;;;;;;20.53;3.50;;;11.00;99.90;;;;;;5017400;28;20033;-84
2022/11/02 06:23:49;;;;;;;18.48;3.15;;;11.10;99.90;;;;;;5013545;28;20288;-85
2022/11/02 06:26:15;;;;;;;21.33;3.30;;;11.10;99.90;;;;;;5008646;28;20514;-84
2022/11/02 06:28:41;;;;;;;16.10;3.38;;;11.10;99.90;;;;;;5018249;28;20037;-84
2022/11/02 06:31:07;;;;;;;20.58;3.72;;;11.10;99.90;;;;;;5019286;28;20104;-86
2022/11/02 06:33:32;;;;;;;20.15;3.20;;;11.10;99.90;;;;;;5021650;28;20132;-88
2022/11/02 06:35:58;;;;;;;18.60;3.67;;;11.10;99.90;;;;;;5024627;28;20053;-87
2022/11/02 06:38:24;;;;;;;27.17;3.33;;;11.10;99.90;;;;;;5018873;28;20033;-85
2022/11/02 06:40:53;;;;;;;23.42;3.15;;;11.10;99.90;;;;;;5019000;28;20104;-86
2022/11/02 06:43:19;;;;;;;13.23;3.03;;;11.10;99.90;;;;;;5018643;28;20041;-84
2022/11/02 06:45:54;;;;;;;15.63;3.05;;;11.20;99.90;;;;;;5019240;28;20036;-84
2022/11/02 06:48:20;;;;;;;28.05;5.97;;;11.10;99.90;;;;;;5020496;28;20036;-88
2022/11/02 06:50:49;;;;;;;24.05;3.00;;;11.10;99.90;;;;;;5023948;28;20136;-86
2022/11/02 06:53:14;;;;;;;20.35;3.13;;;11.10;99.90;;;;;;5019550;28;20088;-83
2022/11/02 06:55:40;;;;;;;17.85;2.92;;;11.20;99.90;;;;;;5026578;28;20057;-85
2022/11/02 06:58:06;;;;;;;18.20;4.28;;;11.20;99.90;;;;;;5019175;28;20566;-84
2022/11/02 07:00:33;;;;;;;20.30;2.75;;;11.20;99.90;;;;;;5020599;28;20438;-85
2022/11/02 07:03:05;;;;;;;25.60;3.95;;;11.20;99.90;;;;;;5019969;28;20029;-84
2022/11/02 07:05:31;;;;;;;16.13;2.53;;;11.20;99.90;;;;;;5023112;28;20044;-85
2022/11/02 07:08:03;;;;;;;18.05;2.85;;;11.30;99.90;;;;;;5025022;28;20129;-85
2022/11/02 07:10:29;;;;;;;26.17;3.60;;;11.30;99.90;;;;;;5025508;28;20029;-88
2022/11/02 07:13:01;;;;;;;25.60;3.92;;;11.40;99.90;;;;;;5026094;28;20036;-83
2022/11/02 07:15:27;;;;;;;24.42;4.00;;;11.30;99.90;;;;;;5017902;28;20030;-88
2022/11/02 07:17:53;;;;;;;14.55;2.88;;;11.40;99.90;;;;;;5013861;28;20030;-84
2022/11/02 07:20:18;;;;;;;9.43;3.08;;;11.40;99.90;;;;;;5022337;28;20030;-89
2022/11/02 07:22:58;;;;;;;21.45;3.25;;;11.40;99.90;;;;;;5020289;28;20084;-88
2022/11/02 07:25:26;;;;;;;22.65;4.25;;;11.50;99.90;;;;;;5026983;28;20057;-83
2022/11/02 07:27:51;;;;;;;15.23;3.33;;;11.50;99.90;;;;;;5019025;28;20124;-86
2022/11/02 07:30:18;;;;;;;23.85;4.22;;;11.50;99.90;;;;;;5017520;28;20116;-86
2022/11/02 07:32:49;;;;;;;23.90;3.67;;;11.60;99.90;;;;;;5019450;28;20057;-85
2022/11/02 07:35:16;;;;;;;17.27;3.50;;;11.60;99.90;;;;;;5028429;28;20044;-84
2022/11/02 07:37:42;;;;;;;24.50;4.35;;;11.60;99.90;;;;;;5022951;28;20064;-88
2022/11/02 07:40:09;;;;;;;18.83;3.78;;;11.70;99.90;;;;;;5028694;28;20021;-87
2022/11/02 07:42:35;;;;;;;15.15;2.75;;;11.70;99.90;;;;;;5012459;28;20021;-86
2022/11/02 07:45:01;;;;;;;35.10;4.80;;;11.80;99.90;;;;;;5030201;28;20034;-86
2022/11/02 07:47:26;;;;;;;18.98;3.13;;;11.80;99.90;;;;;;5029825;28;20379;-87
2022/11/02 07:49:57;;;;;;;26.23;3.30;;;11.70;99.90;;;;;;5019598;28;20044;-86
2022/11/02 07:52:23;;;;;;;18.33;3.28;;;11.80;99.90;;;;;;5029937;28;20485;-84
2022/11/02 07:54:58;;;;;;;15.10;2.72;;;11.80;99.90;;;;;;5031744;28;20034;-86
2022/11/02 07:57:23;;;;;;;17.15;4.05;;;11.70;99.90;;;;;;5032710;28;20035;-86
2022/11/02 08:00:02;;;;;;;14.88;2.95;;;11.80;99.90;;;;;;5029628;28;20033;-85
2022/11/02 08:02:28;;;;;;;13.98;3.17;;;11.80;99.90;;;;;;5029809;28;20023;-89
2022/11/02 08:04:59;;;;;;;14.38;3.75;;;11.90;99.90;;;;;;5024554;28;20038;-81
2022/11/02 08:07:24;;;;;;;12.00;3.35;;;11.90;99.90;;;;;;5025346;28;20391;-85
2022/11/02 08:09:56;;;;;;;16.42;3.08;;;11.90;99.90;;;;;;5029705;28;20045;-84
2022/11/02 08:12:22;;;;;;;17.92;2.92;;;11.90;99.90;;;;;;5029814;28;20041;-82
2022/11/02 08:14:59;;;;;;;24.13;4.60;;;11.90;99.90;;;;;;5028282;28;20026;-83
2022/11/02 08:17:25;;;;;;;16.92;2.80;;;11.90;99.90;;;;;;5029458;28;20035;-83
2022/11/02 08:19:57;;;;;;;21.20;4.13;;;11.90;99.90;;;;;;5024140;28;20108;-82
2022/11/02 08:22:22;;;;;;;21.83;2.85;;;12.00;99.90;;;;;;5020174;28;20030;-85
2022/11/02 08:24:48;;;;;;;23.85;3.83;;;12.00;99.90;;;;;;5009763;28;20026;-87
2022/11/02 08:27:14;;;;;;;17.35;3.15;;;12.00;99.90;;;;;;5020775;28;20072;-86
2022/11/02 08:29:39;;;;;;;14.75;4.20;;;12.10;99.90;;;;;;5028861;28;20112;-85
2022/11/02 08:32:11;;;;;;;32.33;3.35;;;12.10;99.90;;;;;;5028859;28;20053;-84
2022/11/02 08:34:38;;;;;;;12.07;2.97;;;12.20;99.90;;;;;;5028578;28;20033;-84
2022/11/02 08:37:06;;;;;;;17.55;4.20;;;12.20;99.90;;;;;;5028964;28;20092;-89
2022/11/02 08:39:32;;;;;;;17.98;3.60;;;12.20;99.90;;;;;;5029186;28;20422;-83
2022/11/02 08:42:04;;;;;;;22.60;4.90;;;12.20;99.90;;;;;;5029158;28;20022;-82
2022/11/02 08:44:30;;;;;;;17.13;3.63;;;12.20;99.90;;;;;;5029157;28;20037;-85
2022/11/02 08:47:01;;;;;;;18.75;3.47;;;12.30;99.90;;;;;;5028686;28;20052;-85
2022/11/02 08:49:27;;;;;;;19.17;3.42;;;12.30;99.90;;;;;;5028887;28;20028;-82
2022/11/02 08:51:58;;;;;;;20.80;3.22;;;12.40;99.90;;;;;;5028801;28;20025;-83
2022/11/02 08:54:24;;;;;;;9.38;2.60;;;12.40;99.90;;;;;;5028869;28;20033;-84
2022/11/02 08:56:56;;;;;;;16.70;3.65;;;12.50;99.90;;;;;;5023991;28;20113;-84
2022/11/02 08:59:21;;;;;;;15.90;3.45;;;12.50;99.90;;;;;;5011362;28;20021;-84
2022/11/02 09:01:53;;;;;;;20.55;2.97;;;12.50;99.90;;;;;;5028865;28;20036;-84
2022/11/02 09:04:19;;;;;;;17.63;3.22;;;12.50;99.90;;;;;;5010593;28;20491;-84
2022/11/02 09:06:56;;;;;;;18.75;3.50;;;12.60;99.90;;;;;;5029129;28;20048;-84
2022/11/02 09:09:22;;;;;;;18.25;3.97;;;12.60;99.90;;;;;;5018322;28;20029;-83
2022/11/02 09:11:54;;;;;;;14.48;3.40;;;12.70;99.90;;;;;;5020093;28;20053;-89
2022/11/02 09:14:19;;;;;;;14.77;3.40;;;12.70;99.90;;;;;;5024569;28;20116;-85
2022/11/02 09:16:45;;;;;;;19.27;3.42;;;12.80;99.90;;;;;;5030481;28;20117;-85
2022/11/02 09:19:10;;;;;;;15.40;3.35;;;12.90;99.90;;;;;;5017763;28;20045;-84
2022/11/02 09:21:36;;;;;;;21.35;3.88;;;12.90;99.90;;;;;;5026336;28;20036;-85
2022/11/02 09:24:02;;;;;;;19.48;2.90;;;13.00;99.90;;;;;;5002526;28;20036;-84
2022/11/02 09:26:28;;;;;;;9.10;2.28;;;13.00;99.90;;;;;;5025243;28;20060;-85
2022/11/02 09:28:53;;;;;;;18.00;3.40;;;13.10;99.90;;;;;;5031830;28;20049;-86
2022/11/02 09:31:19;;;;;;;21.67;3.85;;;13.00;99.90;;;;;;5024430;28;20033;-85
2022/11/02 09:33:44;;;;;;;23.35;3.20;;;13.10;99.90;;;;;;5028628;28;20100;-87
2022/11/02 09:36:10;;;;;;;15.32;2.92;;;13.10;99.90;;;;;;5025345;28;20033;-82
2022/11/02 09:38:37;;;;;;;39.75;4.20;;;13.20;99.90;;;;;;5017592;28;20042;-84
2022/11/02 09:41:18;;;;;;;12.90;2.72;;;13.20;99.90;;;;;;5014953;28;20026;-84
2022/11/02 09:44:06;;;;;;;14.32;2.92;;;13.20;99.90;;;;;;5017900;28;20029;-84
2022/11/02 09:46:38;;;;;;;12.00;2.20;;;13.20;99.90;;;;;;5017324;28;20076;-85
2022/11/02 09:49:13;;;;;;;18.88;3.13;;;13.30;99.90;;;;;;5027562;28;21118;-89
2022/11/02 09:51:47;;;;;;;19.20;4.17;;;13.40;99.90;;;;;;5027334;28;20079;-85
2022/11/02 09:54:19;;;;;;;17.25;3.03;;;13.30;99.90;;;;;;5018229;28;20041;-85
2022/11/02 09:56:45;;;;;;;16.20;2.65;;;13.40;99.90;;;;;;5027038;28;20478;-85
2022/11/02 09:59:21;;;;;;;12.23;2.25;;;13.40;99.90;;;;;;5027524;28;20071;-84
2022/11/02 10:01:58;;;;;;;16.15;2.88;;;13.40;99.90;;;;;;5027887;28;20044;-84
2022/11/02 10:04:48;;;;;;;17.65;3.00;;;13.50;99.90;;;;;;5019337;28;20033;-83
2022/11/02 10:07:39;;;;;;;10.55;2.45;;;13.60;99.90;;;;;;5022491;28;20112;-84
2022/11/02 10:10:16;;;;;;;9.90;2.10;;;13.70;99.90;;;;;;5026385;28;20021;-84
2022/11/02 10:13:09;;;;;;;14.52;2.65;;;13.60;99.90;;;;;;5018043;28;20061;-85
2022/11/02 10:15:39;;;;;;;7.97;2.08;;;13.70;99.90;;;;;;5027481;28;20037;-82
2022/11/02 10:18:11;;;;;;;19.58;3.22;;;13.70;99.90;;;;;;5021082;28;20026;-85
2022/11/02 10:20:43;;;;;;;13.10;2.47;;;13.70;99.90;;;;;;5026951;28;20064;-83
2022/11/02 10:23:23;;;;;;;23.70;4.63;;;13.80;99.90;;;;;;5027451;28;20032;-86
2022/11/02 10:26:02;;;;;;;14.45;3.72;;;13.70;99.90;;;;;;5027539;28;20040;-84
2022/11/02 10:28:46;;;;;;;17.05;3.45;;;13.80;99.90;;;;;;5018699;28;20040;-84
2022/11/02 10:31:35;;;;;;;15.48;2.45;;;13.70;99.90;;;;;;5020930;28;20040;-86
2022/11/02 10:34:26;;;;;;;8.70;2.35;;;13.70;99.90;;;;;;5004221;28;20050;-84
2022/11/02 10:37:21;;;;;;;16.70;2.78;;;13.70;99.90;;;;;;5002968;28;20029;-83
2022/11/02 10:40:22;;;;;;;16.75;2.78;;;13.70;99.90;;;;;;5002091;28;20040;-84
2022/11/02 10:42:56;;;;;;;14.98;3.22;;;13.70;99.90;;;;;;4937458;28;20039;-82
2022/11/02 10:45:41;;;;;;;9.90;2.05;;;13.80;99.90;;;;;;5005423;28;20033;-84
2022/11/02 10:48:25;;;;;;;9.18;2.25;;;13.90;99.90;;;;;;4994342;28;20133;-81
2022/11/02 10:51:07;;;;;;;8.18;1.90;;;13.90;99.90;;;;;;4999628;28;20026;-86
2022/11/02 10:53:40;;;;;;;10.13;2.13;;;13.90;99.90;;;;;;5001493;28;20034;-84
2022/11/02 10:56:28;;;;;;;16.20;2.25;;;13.90;99.90;;;;;;5003113;28;20080;-84
2022/11/02 10:59:02;;;;;;;11.02;2.53;;;13.80;99.90;;;;;;5006075;28;20065;-85
2022/11/02 11:01:30;;;;;;;18.90;2.78;;;13.70;99.90;;;;;;5003626;28;20064;-82
2022/11/02 11:04:18;;;;;;;12.60;2.35;;;13.80;99.90;;;;;;4999392;28;20117;-85
2022/11/02 11:06:44;;;;;;;12.93;2.83;;;13.70;99.90;;;;;;5008279;28;20587;-84
2022/11/02 11:09:19;;;;;;;12.60;2.38;;;13.70;99.90;;;;;;5006410;28;20085;-83
2022/11/02 11:12:19;;;;;;;35.63;3.22;;;13.70;99.90;;;;;;4998795;28;20033;-85
2022/11/02 11:14:51;;;;;;;21.42;2.45;;;13.80;99.90;;;;;;4987136;28;20042;-79
2022/11/02 11:17:24;;;;;;;15.43;2.80;;;13.80;99.90;;;;;;5002048;28;20066;-81
2022/11/02 11:19:51;;;;;;;19.00;2.35;;;13.90;99.90;;;;;;4987426;28;20044;-82
2022/11/02 11:22:29;;;;;;;12.40;3.00;;;13.90;99.90;;;;;;4986258;28;20109;-90
2022/11/02 11:25:21;;;;;;;15.23;3.03;;;14.00;99.90;;;;;;4984508;28;20057;-86
2022/11/02 11:27:58;;;;;;;14.38;3.03;;;13.90;99.90;;;;;;4973397;28;20085;-84
2022/11/02 11:30:30;;;;;;;10.77;2.47;;;13.90;99.90;;;;;;4991761;28;20491;-85
2022/11/02 11:33:01;;;;;;;9.50;1.98;;;13.90;99.90;;;;;;4967895;28;20066;-83
2022/11/02 11:35:36;;;;;;;13.27;2.05;;;13.90;99.90;;;;;;4983418;28;20487;-87
2022/11/02 11:38:16;;;;;;;13.85;2.15;;;14.00;99.90;;;;;;4968528;28;20027;-83
2022/11/02 11:40:52;;;;;;;11.40;2.42;;;14.00;99.90;;;;;;4983596;28;20027;-86
2022/11/02 11:43:19;;;;;;;9.30;2.33;;;14.00;99.90;;;;;;4966987;28;20035;-85
2022/11/02 11:46:05;;;;;;;11.82;2.83;;;14.00;99.90;;;;;;4988722;28;20034;-83
2022/11/02 11:48:46;;;;;;;9.65;2.15;;;14.00;99.90;;;;;;4984732;28;20118;-87
2022/11/02 11:51:38;;;;;;;15.25;2.03;;;13.80;99.90;;;;;;4988114;28;20491;-84
2022/11/02 11:54:25;;;;;;;12.95;2.17;;;13.80;99.90;;;;;;4985809;28;20030;-84
2022/11/02 11:57:26;;;;;;;8.48;2.17;;;13.80;99.90;;;;;;4984003;28;20034;-88
2022/11/02 12:00:26;;;;;;;8.32;1.95;;;13.80;99.90;;;;;;4983128;28;20117;-83
2022/11/02 12:03:06;;;;;;;12.55;1.92;;;13.90;99.90;;;;;;4983013;28;20065;-86
2022/11/02 12:06:03;;;;;;;6.65;1.42;;;14.00;99.90;;;;;;4978053;28;20034;-86
2022/11/02 12:08:58;;;;;;;5.97;1.77;;;14.10;99.90;;;;;;4987597;28;20050;-83
2022/11/02 12:11:35;;;;;;;18.63;2.70;;;14.10;99.90;;;;;;4985005;28;20526;-83
2022/11/02 12:14:15;;;;;;;12.07;2.25;;;14.20;99.90;;;;;;4983482;28;20053;-83
2022/11/02 12:17:20;;;;;;;7.60;1.90;;;14.30;99.90;;;;;;4984097;28;20507;-84
2022/11/02 12:20:13;;;;;;;6.78;2.03;;;14.30;99.90;;;;;;4982973;28;20058;-83
2022/11/02 12:23:01;;;;;;;17.20;2.15;;;14.40;99.90;;;;;;4984720;28;21102;-84
2022/11/02 12:25:50;;;;;;;9.02;1.83;;;14.40;99.90;;;;;;4976376;28;20041;-86
2022/11/02 12:28:36;;;;;;;10.52;2.30;;;14.60;99.90;;;;;;4978411;28;20042;-85
2022/11/02 12:31:20;;;;;;;9.20;1.98;;;14.60;99.90;;;;;;4984102;28;20031;-85
2022/11/02 12:34:32;;;;;;;14.50;2.40;;;14.50;99.90;;;;;;5003284;28;20044;-82
2022/11/02 12:37:29;;;;;;;7.00;1.75;;;14.40;99.90;;;;;;5011444;28;20025;-83
2022/11/02 12:40:16;;;;;;;6.72;1.58;;;14.30;99.90;;;;;;5005231;28;20029;-83
2022/11/02 12:43:04;;;;;;;10.68;2.42;;;14.30;99.90;;;;;;5003037;28;20387;-83
2022/11/02 12:45:47;;;;;;;11.43;2.58;;;14.30;99.90;;;;;;5007877;28;20053;-86
2022/11/02 12:48:32;;;;;;;8.93;2.53;;;14.40;99.90;;;;;;5012671;28;20069;-85
2022/11/02 12:51:15;;;;;;;13.07;1.83;;;14.60;99.90;;;;;;5003077;28;20021;-83
2022/11/02 12:53:47;;;;;;;10.23;2.17;;;14.60;99.90;;;;;;5003778;28;20030;-82
2022/11/02 12:56:22;;;;;;;10.52;3.00;;;14.60;99.90;;;;;;5000911;28;20029;-83
2022/11/02 12:58:48;;;;;;;13.73;2.03;;;14.70;99.90;;;;;;5006338;28;20040;-84
2022/11/02 13:01:33;;;;;;;14.60;2.45;;;14.80;99.90;;;;;;5005049;28;21703;-82
2022/11/02 13:04:17;;;;;;;7.38;2.25;;;14.80;99.90;;;;;;5007086;28;20491;-86
2022/11/02 13:06:49;;;;;;;7.97;2.63;;;14.80;99.90;;;;;;4999365;28;20056;-83
2022/11/02 13:09:17;;;;;;;17.70;3.05;;;14.90;99.90;;;;;;5001819;28;20080;-83
2022/11/02 13:11:49;;;;;;;9.07;2.70;;;14.80;99.90;;;;;;5004916;28;20479;-84
2022/11/02 13:14:19;;;;;;;13.27;2.17;;;14.80;99.90;;;;;;5003917;28;20030;-86
2022/11/02 13:17:16;;;;;;;14.02;2.40;;;14.60;99.90;;;;;;4999826;28;20426;-83
2022/11/02 13:19:54;;;;;;;9.02;1.90;;;14.50;99.90;;;;;;5003052;28;20038;-84
2022/11/02 13:22:27;;;;;;;20.63;2.00;;;14.50;99.90;;;;;;5002464;28;20037;-83
2022/11/02 13:25:12;;;;;;;14.70;2.38;;;14.40;99.90;;;;;;5007354;28;20030;-83